TimeCDT,TemperatureF,Dew PointF,Humidity,Sea Level PressureIn,VisibilityMPH,Wind Direction,Wind SpeedMPH,Gust SpeedMPH,PrecipitationIn,Events,Conditions,WindDirDegrees,DateUTC
12:15 AM,69.4,57.4,65,29.84,10.0,South,6.9,-,N/A,,Clear,190,2013-05-17 05:15:00
12:35 AM,68.4,57.2,67,29.84,10.0,South,6.9,-,N/A,,Clear,190,2013-05-17 05:35:00
12:55 AM,68.0,57.2,68,29.83,10.0,South,6.9,-,N/A,,Clear,170,2013-05-17 05:55:00
1:15 AM,67.1,57.2,70,29.84,10.0,South,5.8,-,N/A,,Clear,180,2013-05-17 06:15:00
1:35 AM,66.2,57.4,73,29.84,10.0,South,6.9,-,N/A,,Clear,190,2013-05-17 06:35:00
1:55 AM,67.3,57.7,71,29.84,10.0,SSW,5.8,-,N/A,,Clear,200,2013-05-17 06:55:00
2:15 AM,66.6,57.6,73,29.83,10.0,SSW,5.8,-,N/A,,Clear,200,2013-05-17 07:15:00
2:35 AM,66.6,58.1,74,29.83,10.0,South,6.9,-,N/A,,Clear,190,2013-05-17 07:35:00
2:55 AM,65.5,58.1,77,29.83,10.0,South,5.8,-,N/A,,Clear,170,2013-05-17 07:55:00
3:15 AM,64.8,58.6,81,29.84,10.0,SSE,4.6,-,N/A,,Clear,150,2013-05-17 08:15:00
3:35 AM,64.8,58.8,81,29.84,10.0,SE,4.6,-,N/A,,Clear,140,2013-05-17 08:35:00
3:55 AM,64.8,59.0,82,29.84,10.0,SE,3.5,-,N/A,,Clear,140,2013-05-17 08:55:00
4:15 AM,64.4,59.0,83,29.85,10.0,SE,3.5,-,N/A,,Clear,140,2013-05-17 09:15:00
4:35 AM,64.4,59.0,83,29.85,10.0,SSE,4.6,-,N/A,,Clear,150,2013-05-17 09:35:00
4:55 AM,64.4,59.0,83,29.85,10.0,SSE,6.9,-,N/A,,Clear,150,2013-05-17 09:55:00
5:15 AM,63.9,59.2,85,29.85,10.0,SSE,6.9,-,N/A,,Clear,150,2013-05-17 10:15:00
5:35 AM,63.7,59.2,85,29.86,10.0,SSE,5.8,-,N/A,,Clear,160,2013-05-17 10:35:00
5:55 AM,63.9,59.2,85,29.86,10.0,SSE,3.5,-,N/A,,Clear,160,2013-05-17 10:55:00
6:15 AM,63.5,59.2,86,29.87,10.0,SSE,4.6,-,N/A,,Clear,150,2013-05-17 11:15:00
6:35 AM,63.5,59.4,86,29.88,10.0,SSE,5.8,-,N/A,,Clear,160,2013-05-17 11:35:00
7:15 AM,63.5,59.5,87,29.89,10.0,SSE,5.8,-,N/A,,Clear,150,2013-05-17 12:15:00
7:35 AM,64.0,59.9,86,29.90,10.0,SSE,5.8,-,N/A,,Clear,160,2013-05-17 12:35:00
7:55 AM,66.2,60.4,82,29.91,10.0,South,4.6,-,N/A,,Clear,170,2013-05-17 12:55:00
8:15 AM,67.1,60.3,79,29.91,10.0,South,5.8,-,N/A,,Clear,180,2013-05-17 13:15:00
8:35 AM,69.1,60.8,75,29.91,10.0,SSW,8.1,-,N/A,,Clear,200,2013-05-17 13:35:00
8:55 AM,70.2,60.6,72,29.91,10.0,SSW,8.1,-,N/A,,Clear,210,2013-05-17 13:55:00
9:15 AM,71.4,61.0,70,29.91,10.0,South,5.8,-,N/A,,Clear,190,2013-05-17 14:15:00
9:35 AM,73.2,61.3,66,29.91,10.0,South,6.9,-,N/A,,Clear,190,2013-05-17 14:35:00
9:55 AM,74.7,60.8,62,29.91,10.0,South,6.9,-,N/A,,Clear,180,2013-05-17 14:55:00
10:15 AM,75.6,60.4,59,29.90,10.0,SSW,10.4,-,N/A,,Clear,200,2013-05-17 15:15:00
10:35 AM,76.6,60.4,57,29.91,10.0,SW,3.5,-,N/A,,Clear,220,2013-05-17 15:35:00
10:55 AM,77.2,60.1,55,29.90,10.0,SSW,3.5,-,N/A,,Clear,200,2013-05-17 15:55:00
11:15 AM,77.7,59.5,53,29.90,10.0,SSE,3.5,-,N/A,,Scattered Clouds,160,2013-05-17 16:15:00
11:35 AM,79.0,59.9,52,29.90,10.0,SSE,6.9,-,N/A,,Mostly Cloudy,150,2013-05-17 16:35:00
11:55 AM,79.2,59.0,50,29.90,10.0,SSE,10.4,-,N/A,,Scattered Clouds,160,2013-05-17 16:55:00
12:15 PM,80.6,58.6,47,29.90,10.0,South,9.2,17.3,N/A,,Scattered Clouds,170,2013-05-17 17:15:00
12:35 PM,81.5,59.2,47,29.89,10.0,SE,5.8,-,N/A,,Scattered Clouds,140,2013-05-17 17:35:00
12:55 PM,81.5,58.8,46,29.89,10.0,SE,6.9,-,N/A,,Scattered Clouds,130,2013-05-17 17:55:00
1:15 PM,81.1,58.5,46,29.88,10.0,SE,9.2,-,N/A,,Scattered Clouds,130,2013-05-17 18:15:00
1:35 PM,82.9,59.0,44,29.88,10.0,SSE,10.4,-,N/A,,Scattered Clouds,160,2013-05-17 18:35:00
2:15 PM,82.9,57.0,41,29.87,10.0,SSE,9.2,17.3,N/A,,Scattered Clouds,160,2013-05-17 19:15:00
2:35 PM,84.0,56.3,39,29.87,10.0,SSE,10.4,-,N/A,,Scattered Clouds,160,2013-05-17 19:35:00
2:55 PM,84.2,56.7,39,29.86,10.0,SSE,8.1,-,N/A,,Scattered Clouds,150,2013-05-17 19:55:00
3:15 PM,84.2,55.8,38,29.86,10.0,SSE,5.8,-,N/A,,Scattered Clouds,150,2013-05-17 20:15:00
3:35 PM,85.1,56.8,38,29.86,10.0,SE,10.4,-,N/A,,Clear,130,2013-05-17 20:35:00
3:55 PM,84.6,55.0,36,29.85,10.0,SSE,6.9,-,N/A,,Scattered Clouds,150,2013-05-17 20:55:00
4:15 PM,84.7,56.3,38,29.85,10.0,SSE,10.4,-,N/A,,Clear,150,2013-05-17 21:15:00
4:35 PM,85.1,56.5,38,29.85,10.0,SE,9.2,-,N/A,,Scattered Clouds,140,2013-05-17 21:35:00
4:55 PM,84.7,55.9,37,29.84,10.0,South,8.1,-,N/A,,Scattered Clouds,170,2013-05-17 21:55:00
5:15 PM,84.7,55.6,37,29.84,10.0,SSE,8.1,-,N/A,,Clear,150,2013-05-17 22:15:00
5:35 PM,85.1,56.5,38,29.84,10.0,SE,8.1,-,N/A,,Clear,130,2013-05-17 22:35:00
5:55 PM,84.6,56.5,38,29.84,10.0,SE,8.1,-,N/A,,Clear,130,2013-05-17 22:55:00
6:15 PM,84.6,55.8,37,29.84,10.0,SSE,6.9,-,N/A,,Clear,150,2013-05-17 23:15:00
6:35 PM,83.8,56.1,39,29.84,10.0,SE,10.4,-,N/A,,Clear,140,2013-05-17 23:35:00
6:55 PM,83.3,56.7,40,29.84,10.0,SE,8.1,17.3,N/A,,Clear,140,2013-05-17 23:55:00
7:15 PM,82.6,56.8,41,29.84,10.0,SE,9.2,17.3,N/A,,Clear,140,2013-05-18 00:15:00
7:35 PM,81.5,57.0,43,29.84,10.0,SE,9.2,17.3,N/A,,Clear,140,2013-05-18 00:35:00
7:55 PM,80.2,57.4,45,29.84,10.0,SE,9.2,-,N/A,,Clear,140,2013-05-18 00:55:00
8:15 PM,79.2,57.4,47,29.85,10.0,SE,10.4,-,N/A,,Clear,140,2013-05-18 01:15:00
8:35 PM,77.9,57.6,49,29.85,10.0,SE,9.2,-,N/A,,Clear,140,2013-05-18 01:35:00
8:55 PM,76.6,57.6,52,29.86,10.0,SE,5.8,-,N/A,,Clear,140,2013-05-18 01:55:00
9:15 PM,75.6,57.6,53,29.88,10.0,SE,8.1,-,N/A,,Clear,140,2013-05-18 02:15:00
9:35 PM,75.2,57.6,54,29.89,10.0,SE,8.1,-,N/A,,Clear,140,2013-05-18 02:35:00
9:55 PM,74.3,57.9,57,29.89,10.0,SE,8.1,-,N/A,,Clear,130,2013-05-18 02:55:00
10:15 PM,73.0,58.1,59,29.90,10.0,SE,8.1,-,N/A,,Clear,140,2013-05-18 03:15:00
10:35 PM,72.1,58.1,61,29.90,10.0,SSE,8.1,-,N/A,,Clear,150,2013-05-18 03:35:00
10:55 PM,71.2,58.3,64,29.90,10.0,SSE,6.9,-,N/A,,Clear,150,2013-05-18 03:55:00
11:15 PM,70.5,58.3,65,29.91,10.0,SSE,6.9,-,N/A,,Clear,150,2013-05-18 04:15:00
11:35 PM,70.0,58.1,66,29.90,10.0,SSE,8.1,-,N/A,,Clear,150,2013-05-18 04:35:00
11:55 PM,69.8,58.3,67,29.91,10.0,SSE,8.1,-,N/A,,Clear,150,2013-05-18 04:55:00